createdAt,value
2022-09-14T12:34:44.777Z,100.00
2022-09-14T12:40:28.972Z,100.00
2022-09-14T12:46:00.997Z,100.00
2022-09-14T12:51:12.039Z,100.00
2022-09-14T12:56:26.500Z,100.00
2022-09-14T13:01:45.239Z,100.00
2022-09-14T13:06:52.996Z,100.00
2022-09-14T13:12:03.333Z,100.00
2022-09-14T13:17:16.009Z,100.00
2022-09-14T13:22:29.415Z,100.00
2022-09-14T13:27:42.666Z,100.00
2022-09-14T13:32:54.765Z,100.00
2022-09-14T13:38:08.679Z,100.00
2022-09-14T13:43:16.783Z,100.00
2022-09-14T13:48:24.527Z,100.00
2022-09-14T13:53:43.523Z,100.00
2022-09-14T13:59:12.167Z,100.00
2022-09-14T14:04:29.091Z,100.00
2022-09-14T14:09:44.858Z,100.00
2022-09-14T14:15:00.077Z,100.00
2022-09-14T14:20:34.841Z,100.00
2022-09-14T14:25:46.495Z,100.00
2022-09-14T14:30:54.637Z,100.00
2022-09-14T14:36:08.280Z,100.00
2022-09-14T14:41:18.698Z,100.00
2022-09-14T14:46:26.805Z,100.00
2022-09-14T14:51:33.697Z,100.00
2022-09-14T14:56:40.936Z,100.00
2022-09-14T15:01:47.925Z,100.00
2022-09-14T15:06:55.183Z,100.00
2022-09-14T15:12:02.215Z,100.00
2022-09-14T15:17:09.302Z,100.00
2022-09-14T15:22:16.310Z,100.00
2022-09-14T15:27:23.325Z,100.00
2022-09-14T15:32:30.319Z,100.00
2022-09-14T15:37:37.526Z,100.00
2022-09-14T15:42:44.568Z,100.00
2022-09-14T15:47:51.443Z,100.00
2022-09-14T15:53:02.528Z,100.00
2022-09-14T15:58:10.483Z,100.00
2022-09-14T16:03:17.395Z,100.00
2022-09-14T16:08:24.256Z,100.00
2022-09-14T16:13:31.477Z,100.00
2022-09-14T16:18:39.428Z,100.00
2022-09-14T16:23:48.294Z,100.00
2022-09-14T16:28:56.881Z,100.00
2022-09-14T16:34:09.679Z,100.00
2022-09-14T16:39:18.485Z,100.00
2022-09-14T16:44:26.964Z,100.00
2022-09-14T16:49:33.907Z,100.00
2022-09-14T16:54:41.893Z,100.00
2022-09-14T16:59:48.756Z,100.00
2022-09-14T17:04:55.748Z,100.00
2022-09-14T17:10:02.563Z,100.00
2022-09-14T17:15:12.034Z,100.00
2022-09-14T17:20:20.040Z,100.00
2022-09-14T17:25:26.935Z,100.00
2022-09-14T17:30:34.138Z,100.00
2022-09-14T17:35:46.622Z,100.00
2022-09-14T17:40:53.751Z,100.00
2022-09-14T17:46:01.136Z,100.00
2022-09-14T17:51:12.632Z,100.00
2022-09-14T17:56:24.108Z,100.00
2022-09-14T18:01:31.552Z,100.00
2022-09-14T18:06:41.328Z,100.00
2022-09-14T18:11:50.127Z,100.00
2022-09-14T18:17:00.942Z,100.00
2022-09-14T18:22:09.603Z,100.00
2022-09-14T18:27:16.954Z,100.00
2022-09-14T18:32:24.336Z,100.00
2022-09-14T18:37:31.266Z,100.00
2022-09-14T18:42:38.161Z,100.00
2022-09-14T18:47:50.057Z,100.00
2022-09-14T18:52:57.037Z,100.00
2022-09-14T18:58:04.344Z,99.95
2022-09-14T19:03:12.432Z,99.49
2022-09-14T19:08:55.230Z,99.09
2022-09-14T19:14:20.255Z,99.04
2022-09-14T19:19:36.498Z,98.99
2022-09-14T19:24:48.800Z,98.69
2022-09-14T19:30:01.328Z,98.42
2022-09-14T19:35:18.953Z,98.37
2022-09-14T19:40:27.898Z,98.22
2022-09-14T19:45:38.295Z,97.78
2022-09-14T19:50:46.166Z,97.53
2022-09-14T19:55:53.067Z,97.67
2022-09-14T20:01:00.219Z,97.60
2022-09-14T20:06:09.140Z,97.46
2022-09-14T20:11:20.154Z,97.25
2022-09-14T20:16:31.051Z,96.93
2022-09-14T20:21:38.657Z,96.69
2022-09-14T20:26:45.728Z,96.27
2022-09-14T20:31:55.805Z,96.09
2022-09-14T20:37:02.723Z,95.80
2022-09-14T20:42:09.952Z,95.59
2022-09-14T20:47:19.189Z,95.43
2022-09-14T20:52:26.167Z,95.27
2022-09-14T20:57:34.680Z,95.22
2022-09-14T21:02:41.632Z,95.16
2022-09-14T21:07:56.138Z,94.98
2022-09-14T21:13:03.443Z,94.67
2022-09-14T21:18:10.497Z,94.49
2022-09-14T21:23:17.313Z,94.40
2022-09-14T21:28:24.460Z,94.32
2022-09-14T21:33:32.461Z,94.22
2022-09-14T21:38:39.799Z,94.07
2022-09-14T21:43:47.190Z,94.00
2022-09-14T21:48:54.661Z,93.92
2022-09-14T21:54:03.110Z,93.88
2022-09-14T21:59:13.073Z,93.92
2022-09-14T22:04:21.928Z,93.83
2022-09-14T22:09:30.064Z,93.72
2022-09-14T22:14:37.692Z,93.66
2022-09-14T22:19:44.998Z,93.53
2022-09-14T22:24:51.783Z,93.47
2022-09-14T22:29:58.902Z,93.47
2022-09-14T22:35:06.382Z,93.59
2022-09-14T22:40:13.781Z,93.67
2022-09-14T22:45:20.803Z,93.66
2022-09-14T22:50:27.740Z,93.71
2022-09-14T22:55:38.693Z,93.71
2022-09-14T23:00:46.506Z,93.69
2022-09-14T23:05:55.737Z,93.54
2022-09-14T23:11:07.117Z,93.40
2022-09-14T23:16:16.128Z,93.34
2022-09-14T23:21:23.779Z,93.40
2022-09-14T23:26:31.757Z,93.44
2022-09-14T23:31:38.668Z,93.35
2022-09-14T23:36:46.273Z,93.23
2022-09-14T23:41:53.061Z,93.19
2022-09-14T23:47:00.001Z,93.24
2022-09-14T23:52:07.344Z,93.28
2022-09-14T23:57:14.170Z,93.26
